Time;durP1;ratioP1;P1;durP2;ratioP2;P2;SDS_P1;SDS_P2;PMS_P1;PMS_P2;Temp;Humidity;BMP_temperature;BMP_pressure;BME280_temperature;BME280_humidity;BME280_pressure;Samples;Min_cycle;Max_cycle;Signal;HPM_P1;HPM_P2
2022/07/03 00:02:10;;;;;;;2.40;2.20;;;;;;;;;;5031115;28;20215;-37
2022/07/03 00:04:37;;;;;;;5.50;2.30;;;;;;;;;;5025600;28;20585;-36
2022/07/03 00:07:05;;;;;;;2.13;1.93;;;;;;;;;;5030687;28;20232;-37
2022/07/03 00:09:32;;;;;;;2.17;1.60;;;;;;;;;;5031272;28;20220;-35
2022/07/03 00:11:59;;;;;;;2.37;2.17;;;;;;;;;;5031458;28;20216;-37
2022/07/03 00:14:26;;;;;;;1.97;1.87;;;;;;;;;;5026750;28;20210;-36
2022/07/03 00:16:54;;;;;;;2.47;1.77;;;;;;;;;;5030758;28;20234;-38
2022/07/03 00:19:22;;;;;;;2.80;1.90;;;;;;;;;;5021889;28;20208;-34
2022/07/03 00:21:52;;;;;;;2.93;1.97;;;;;;;;;;5029911;28;20204;-38
2022/07/03 00:24:22;;;;;;;3.47;1.97;;;;;;;;;;5030435;28;20204;-35
2022/07/03 00:26:52;;;;;;;3.43;2.17;;;;;;;;;;5031033;28;20231;-38
2022/07/03 00:29:21;;;;;;;2.37;2.00;;;;;;;;;;5024320;28;20622;-34
2022/07/03 00:31:49;;;;;;;3.27;1.87;;;;;;;;;;5030339;28;20204;-36
2022/07/03 00:34:16;;;;;;;1.80;1.70;;;;;;;;;;5021720;28;20210;-35
2022/07/03 00:36:47;;;;;;;3.27;1.97;;;;;;;;;;5021200;28;20628;-39
2022/07/03 00:39:14;;;;;;;4.10;2.33;;;;;;;;;;5030756;28;20656;-36
2022/07/03 00:41:45;;;;;;;3.27;1.90;;;;;;;;;;5024132;28;20210;-39
2022/07/03 00:44:12;;;;;;;1.63;1.53;;;;;;;;;;5025717;28;20216;-37
2022/07/03 00:46:40;;;;;;;2.40;1.73;;;;;;;;;;5029874;28;20239;-38
2022/07/03 00:49:10;;;;;;;1.83;1.60;;;;;;;;;;5017576;28;20270;-36
2022/07/03 00:51:40;;;;;;;2.17;1.57;;;;;;;;;;5025260;28;20250;-34
2022/07/03 00:54:10;;;;;;;3.17;1.60;;;;;;;;;;5029787;28;20207;-37
2022/07/03 00:56:39;;;;;;;2.60;1.87;;;;;;;;;;5026333;28;20220;-38
2022/07/03 00:59:06;;;;;;;2.03;1.80;;;;;;;;;;5016866;28;20222;-38
2022/07/03 01:01:36;;;;;;;1.93;1.73;;;;;;;;;;5021389;28;20216;-40
2022/07/03 01:04:10;;;;;;;1.93;1.83;;;;;;;;;;5012058;28;20309;-38
2022/07/03 01:06:41;;;;;;;2.53;2.00;;;;;;;;;;5026171;28;20227;-38
2022/07/03 01:09:10;;;;;;;2.60;2.20;;;;;;;;;;5029676;28;20207;-38
2022/07/03 01:11:39;;;;;;;1.77;1.60;;;;;;;;;;5030469;28;20238;-36
2022/07/03 01:14:16;;;;;;;2.07;1.83;;;;;;;;;;5021346;28;20205;-36
2022/07/03 01:16:51;;;;;;;3.30;1.93;;;;;;;;;;5030923;28;20254;-38
2022/07/03 01:19:27;;;;;;;3.37;2.00;;;;;;;;;;5026186;28;20242;-39
2022/07/03 01:21:57;;;;;;;3.57;1.90;;;;;;;;;;5023674;28;20219;-36
2022/07/03 01:24:34;;;;;;;4.23;2.07;;;;;;;;;;5031900;28;20235;-38
2022/07/03 01:27:08;;;;;;;2.27;1.87;;;;;;;;;;5025555;28;20254;-38
2022/07/03 01:29:39;;;;;;;1.93;1.80;;;;;;;;;;5022030;28;20228;-39
2022/07/03 01:32:08;;;;;;;2.10;1.80;;;;;;;;;;5029788;28;20215;-38
2022/07/03 01:34:36;;;;;;;1.70;1.60;;;;;;;;;;5020330;28;20306;-35
2022/07/03 01:37:03;;;;;;;2.07;1.83;;;;;;;;;;5029674;28;20234;-40
2022/07/03 01:39:31;;;;;;;1.67;1.57;;;;;;;;;;5029926;28;20223;-35
2022/07/03 01:42:01;;;;;;;1.80;1.70;;;;;;;;;;5027908;28;20349;-38
2022/07/03 01:44:30;;;;;;;2.00;1.70;;;;;;;;;;5017658;28;20218;-39
2022/07/03 01:46:59;;;;;;;2.03;1.87;;;;;;;;;;5029777;28;20220;-41
2022/07/03 01:49:27;;;;;;;1.90;1.80;;;;;;;;;;5023958;28;20211;-38
2022/07/03 01:51:54;;;;;;;2.70;1.63;;;;;;;;;;5029109;28;20219;-36
2022/07/03 01:54:25;;;;;;;2.10;1.40;;;;;;;;;;5030061;28;20708;-37
2022/07/03 01:56:53;;;;;;;1.60;1.50;;;;;;;;;;5029751;28;20224;-38
2022/07/03 01:59:23;;;;;;;1.83;1.70;;;;;;;;;;5019848;28;20203;-37
2022/07/03 02:01:53;;;;;;;1.80;1.70;;;;;;;;;;5031383;28;20204;-37
2022/07/03 02:04:24;;;;;;;1.77;1.67;;;;;;;;;;5019675;28;20211;-35
2022/07/03 02:07:00;;;;;;;3.90;1.70;;;;;;;;;;5025182;28;20548;-35
2022/07/03 02:09:31;;;;;;;1.60;1.50;;;;;;;;;;5033616;28;20208;-36
2022/07/03 02:11:59;;;;;;;2.37;1.53;;;;;;;;;;5028190;28;20204;-39
2022/07/03 02:14:27;;;;;;;1.97;1.83;;;;;;;;;;5028572;28;20200;-38
2022/07/03 02:17:14;;;;;;;1.77;1.67;;;;;;;;;;5033633;28;20224;-35
2022/07/03 02:19:45;;;;;;;1.97;1.50;;;;;;;;;;5017199;28;20266;-39
2022/07/03 02:22:13;;;;;;;3.13;1.80;;;;;;;;;;5033590;28;20216;-38
2022/07/03 02:24:44;;;;;;;1.77;1.63;;;;;;;;;;5033687;28;20232;-39
2022/07/03 02:27:16;;;;;;;2.07;1.70;;;;;;;;;;5030341;28;20231;-37
2022/07/03 02:29:48;;;;;;;1.70;1.60;;;;;;;;;;5017653;28;20236;-34
2022/07/03 02:32:19;;;;;;;1.47;1.40;;;;;;;;;;5033736;28;20212;-37
2022/07/03 02:34:47;;;;;;;3.93;1.90;;;;;;;;;;5030696;28;20215;-36
2022/07/03 02:37:17;;;;;;;2.83;1.70;;;;;;;;;;5026845;28;20235;-39
2022/07/03 02:39:46;;;;;;;1.80;1.70;;;;;;;;;;5033253;28;20211;-39
2022/07/03 02:42:19;;;;;;;1.70;1.60;;;;;;;;;;5023851;28;20214;-35
2022/07/03 02:44:47;;;;;;;5.13;1.80;;;;;;;;;;5032195;28;20681;-38
2022/07/03 02:47:22;;;;;;;1.97;1.50;;;;;;;;;;5033258;28;20316;-37
2022/07/03 02:49:54;;;;;;;1.50;1.40;;;;;;;;;;5022864;28;20214;-34
2022/07/03 02:52:28;;;;;;;2.97;1.67;;;;;;;;;;5027361;28;20294;-37
2022/07/03 02:54:58;;;;;;;1.70;1.60;;;;;;;;;;5033249;28;20207;-37
2022/07/03 02:57:25;;;;;;;2.33;1.70;;;;;;;;;;5029707;28;20232;-35
2022/07/03 02:59:56;;;;;;;2.33;1.90;;;;;;;;;;5022725;28;20207;-36
2022/07/03 03:02:49;;;;;;;1.60;1.50;;;;;;;;;;5120617;23;20218;-27
2022/07/03 03:05:17;;;;;;;1.53;1.43;;;;;;;;;;4996241;28;20219;-31
2022/07/03 03:07:50;;;;;;;4.93;1.70;;;;;;;;;;5009041;28;20220;-30
2022/07/03 03:10:20;;;;;;;2.53;2.00;;;;;;;;;;5012356;28;20791;-31
2022/07/03 03:12:48;;;;;;;1.80;1.50;;;;;;;;;;5006033;28;20196;-28
2022/07/03 03:15:15;;;;;;;2.40;1.20;;;;;;;;;;5007296;28;20212;-28
2022/07/03 03:17:45;;;;;;;2.07;1.30;;;;;;;;;;5010267;28;20239;-31
2022/07/03 03:20:15;;;;;;;3.23;1.30;;;;;;;;;;4999774;28;20208;-31
2022/07/03 03:22:54;;;;;;;1.40;1.30;;;;;;;;;;5011882;28;20207;-27
2022/07/03 03:25:21;;;;;;;1.43;1.27;;;;;;;;;;5012171;28;20208;-28
2022/07/03 03:27:48;;;;;;;2.13;1.37;;;;;;;;;;5003014;28;20266;-27
2022/07/03 03:30:16;;;;;;;1.87;1.60;;;;;;;;;;5007761;28;20231;-30
2022/07/03 03:32:44;;;;;;;2.07;1.27;;;;;;;;;;5010415;28;20212;-30
2022/07/03 03:35:11;;;;;;;2.83;1.73;;;;;;;;;;4993339;28;20300;-32
2022/07/03 03:37:39;;;;;;;2.50;1.70;;;;;;;;;;5008385;28;20614;-31
2022/07/03 03:40:06;;;;;;;1.83;1.57;;;;;;;;;;5012623;28;20212;-25
2022/07/03 03:42:33;;;;;;;1.80;1.70;;;;;;;;;;5004542;28;20261;-30
2022/07/03 03:45:01;;;;;;;2.90;2.00;;;;;;;;;;5006753;28;20211;-29
2022/07/03 03:47:28;;;;;;;2.70;1.50;;;;;;;;;;5013908;28;20736;-25
2022/07/03 03:49:56;;;;;;;1.50;1.40;;;;;;;;;;5000510;28;20214;-30
2022/07/03 03:52:23;;;;;;;1.47;1.40;;;;;;;;;;5008631;28;20590;-29
2022/07/03 03:54:50;;;;;;;4.00;1.50;;;;;;;;;;5014129;28;20195;-26
2022/07/03 03:57:19;;;;;;;3.73;1.60;;;;;;;;;;5011645;28;20233;-28
2022/07/03 03:59:46;;;;;;;1.40;1.30;;;;;;;;;;5004373;28;20212;-29
2022/07/03 04:02:14;;;;;;;1.80;1.60;;;;;;;;;;5011456;28;20665;-30
2022/07/03 04:04:41;;;;;;;1.60;1.50;;;;;;;;;;5008520;28;20215;-25
2022/07/03 04:07:09;;;;;;;1.70;1.60;;;;;;;;;;5004593;28;20239;-28
2022/07/03 04:09:37;;;;;;;6.80;1.63;;;;;;;;;;5011761;28;20207;-29
2022/07/03 04:12:04;;;;;;;2.70;1.67;;;;;;;;;;5010112;28;20223;-25
2022/07/03 04:14:31;;;;;;;3.80;1.63;;;;;;;;;;4998804;28;20220;-29
2022/07/03 04:16:59;;;;;;;2.17;1.90;;;;;;;;;;5013189;28;20227;-29
2022/07/03 04:19:26;;;;;;;4.10;1.73;;;;;;;;;;5006510;28;20239;-29
2022/07/03 04:21:53;;;;;;;4.07;1.83;;;;;;;;;;5012822;28;20207;-27
2022/07/03 04:24:22;;;;;;;1.83;1.73;;;;;;;;;;5013413;28;20218;-26
2022/07/03 04:26:49;;;;;;;2.30;1.80;;;;;;;;;;5010104;28;20232;-29
2022/07/03 04:29:16;;;;;;;1.90;1.80;;;;;;;;;;5007500;28;20207;-28
2022/07/03 04:31:43;;;;;;;1.40;1.40;;;;;;;;;;5013054;28;20230;-31
2022/07/03 04:34:12;;;;;;;1.40;1.30;;;;;;;;;;4997299;28;20209;-28
2022/07/03 04:36:39;;;;;;;1.60;1.50;;;;;;;;;;4997376;28;20227;-29
2022/07/03 04:39:06;;;;;;;1.60;1.50;;;;;;;;;;4993736;28;20213;-28
2022/07/03 04:41:34;;;;;;;1.40;1.40;;;;;;;;;;4988279;28;20205;-26
2022/07/03 04:44:01;;;;;;;1.60;1.50;;;;;;;;;;5001658;28;20206;-28
2022/07/03 04:46:28;;;;;;;1.50;1.40;;;;;;;;;;5013128;28;20231;-26
2022/07/03 04:48:56;;;;;;;3.50;1.90;;;;;;;;;;5007171;28;20215;-27
2022/07/03 04:51:23;;;;;;;2.30;1.83;;;;;;;;;;5013025;28;20238;-31
2022/07/03 04:53:50;;;;;;;2.00;1.40;;;;;;;;;;5013095;28;20261;-29
2022/07/03 04:56:17;;;;;;;3.60;1.50;;;;;;;;;;5009760;28;20235;-30
2022/07/03 04:58:45;;;;;;;1.30;1.30;;;;;;;;;;5012052;28;20680;-29
2022/07/03 05:01:12;;;;;;;2.23;1.60;;;;;;;;;;5012782;28;20206;-28
2022/07/03 05:03:40;;;;;;;1.80;1.70;;;;;;;;;;5003198;28;20688;-27
2022/07/03 05:06:07;;;;;;;1.70;1.60;;;;;;;;;;4998309;28;20593;-30
2022/07/03 05:08:34;;;;;;;5.23;1.70;;;;;;;;;;5012058;28;20200;-30
2022/07/03 05:11:01;;;;;;;1.80;1.70;;;;;;;;;;5009428;28;20242;-30
2022/07/03 05:13:29;;;;;;;1.87;1.37;;;;;;;;;;4999337;28;20214;-25
2022/07/03 05:15:57;;;;;;;4.33;1.87;;;;;;;;;;5012370;28;20212;-26
2022/07/03 05:18:25;;;;;;;2.67;1.70;;;;;;;;;;5008951;28;20213;-27
2022/07/03 05:20:52;;;;;;;2.03;1.70;;;;;;;;;;4996481;28;20213;-30
2022/07/03 05:23:19;;;;;;;1.67;1.57;;;;;;;;;;5012033;28;20209;-31
2022/07/03 05:25:46;;;;;;;3.43;1.53;;;;;;;;;;5012562;28;20217;-28
2022/07/03 05:28:13;;;;;;;6.17;1.40;;;;;;;;;;5008795;28;20429;-28
2022/07/03 05:30:40;;;;;;;1.70;1.60;;;;;;;;;;5004938;28;20305;-28
2022/07/03 05:33:08;;;;;;;1.73;1.63;;;;;;;;;;5009939;28;20221;-29
2022/07/03 05:35:36;;;;;;;3.28;1.58;;;;;;;;;;5012413;28;20209;-28
2022/07/03 05:38:03;;;;;;;2.20;1.80;;;;;;;;;;5010652;28;20218;-29
2022/07/03 05:40:29;;;;;;;1.88;1.73;;;;;;;;;;5016641;28;20215;-28
2022/07/03 05:42:56;;;;;;;1.80;1.70;;;;;;;;;;5010007;28;20630;-29
2022/07/03 05:45:23;;;;;;;1.63;1.52;;;;;;;;;;5018471;28;20210;-29
2022/07/03 05:47:50;;;;;;;1.65;1.45;;;;;;;;;;5016978;28;20235;-28
2022/07/03 05:50:19;;;;;;;1.75;1.65;;;;;;;;;;5007804;28;20207;-26
2022/07/03 05:52:46;;;;;;;1.45;1.35;;;;;;;;;;5016505;28;20222;-27
2022/07/03 05:55:13;;;;;;;1.35;1.25;;;;;;;;;;5017372;28;20195;-28
2022/07/03 05:57:40;;;;;;;3.08;1.67;;;;;;;;;;5012295;28;20227;-29
2022/07/03 06:00:08;;;;;;;1.90;1.63;;;;;;;;;;5018498;28;20491;-27
2022/07/03 06:02:35;;;;;;;1.52;1.42;;;;;;;;;;5018842;28;20192;-29
2022/07/03 06:05:02;;;;;;;3.45;2.08;;;;;;;;;;5002755;28;20217;-29
2022/07/03 06:07:30;;;;;;;2.47;1.60;;;;;;;;;;5014503;28;20232;-28
2022/07/03 06:09:57;;;;;;;3.05;1.80;;;;;;;;;;5019068;28;20655;-30
2022/07/03 06:12:24;;;;;;;1.45;1.38;;;;;;;;;;5015769;28;20689;-27
2022/07/03 06:14:52;;;;;;;1.77;1.67;;;;;;;;;;5013348;28;20245;-29
2022/07/03 06:17:19;;;;;;;1.60;1.50;;;;;;;;;;5018991;28;20584;-25
2022/07/03 06:19:46;;;;;;;2.38;1.30;;;;;;;;;;5006557;28;20209;-29
2022/07/03 06:22:13;;;;;;;1.65;1.55;;;;;;;;;;5013269;28;20208;-26
2022/07/03 06:24:42;;;;;;;1.65;1.40;;;;;;;;;;5020092;28;20225;-28
2022/07/03 06:27:09;;;;;;;1.38;1.27;;;;;;;;;;5018781;28;20249;-30
2022/07/03 06:29:37;;;;;;;1.50;1.30;;;;;;;;;;5012363;28;20234;-28
2022/07/03 06:32:04;;;;;;;1.65;1.25;;;;;;;;;;5019217;28;20262;-29
2022/07/03 06:34:31;;;;;;;3.35;1.42;;;;;;;;;;5003791;28;20207;-28
2022/07/03 06:36:58;;;;;;;1.80;1.55;;;;;;;;;;5009006;28;20234;-30
2022/07/03 06:39:26;;;;;;;2.25;1.50;;;;;;;;;;5018606;28;20207;-29
2022/07/03 06:41:54;;;;;;;2.13;1.92;;;;;;;;;;5018241;28;20211;-28
2022/07/03 06:44:21;;;;;;;1.65;1.55;;;;;;;;;;5014197;28;20212;-27
2022/07/03 06:46:48;;;;;;;1.42;1.20;;;;;;;;;;5016828;28;20240;-27
2022/07/03 06:49:15;;;;;;;2.00;1.55;;;;;;;;;;5003912;28;20205;-28
2022/07/03 06:51:42;;;;;;;1.70;1.58;;;;;;;;;;5005542;28;20230;-28
2022/07/03 06:54:10;;;;;;;1.65;1.55;;;;;;;;;;5015729;28;20212;-30
2022/07/03 06:56:37;;;;;;;1.67;1.40;;;;;;;;;;5016010;28;20242;-27
2022/07/03 06:59:05;;;;;;;1.65;1.23;;;;;;;;;;5010654;28;20221;-28
2022/07/03 07:01:32;;;;;;;1.08;1.08;;;;;;;;;;5015337;28;20210;-29
2022/07/03 07:03:59;;;;;;;1.40;1.30;;;;;;;;;;5003998;28;20225;-31
2022/07/03 07:06:26;;;;;;;2.78;1.20;;;;;;;;;;5006984;28;20230;-31
2022/07/03 07:08:53;;;;;;;1.15;1.02;;;;;;;;;;5012453;28;20205;-32
2022/07/03 07:11:21;;;;;;;1.27;1.23;;;;;;;;;;5013242;28;20214;-29
2022/07/03 07:13:48;;;;;;;2.05;1.45;;;;;;;;;;5010154;28;20207;-30
2022/07/03 07:16:16;;;;;;;1.55;1.27;;;;;;;;;;5014822;28;20807;-32
2022/07/03 07:18:44;;;;;;;3.08;1.40;;;;;;;;;;5006811;28;20215;-30
2022/07/03 07:21:11;;;;;;;1.27;1.20;;;;;;;;;;5007850;28;20211;-28
2022/07/03 07:23:38;;;;;;;3.17;1.27;;;;;;;;;;5009771;28;20206;-29
2022/07/03 07:26:06;;;;;;;2.13;1.17;;;;;;;;;;5007289;28;20701;-29
2022/07/03 07:28:34;;;;;;;1.30;1.20;;;;;;;;;;5014350;28;20234;-29
2022/07/03 07:31:02;;;;;;;1.17;1.08;;;;;;;;;;5014408;28;20308;-30
2022/07/03 07:33:30;;;;;;;1.17;1.10;;;;;;;;;;5004085;28;20238;-28
2022/07/03 07:35:57;;;;;;;1.17;1.15;;;;;;;;;;5006017;28;20215;-31
2022/07/03 07:38:24;;;;;;;1.27;1.02;;;;;;;;;;5014069;28;20209;-29
2022/07/03 07:40:51;;;;;;;1.38;1.00;;;;;;;;;;5012771;28;20222;-28
2022/07/03 07:43:18;;;;;;;1.85;1.05;;;;;;;;;;5002129;28;20203;-28
2022/07/03 07:45:46;;;;;;;3.72;0.90;;;;;;;;;;5012232;28;20211;-29
2022/07/03 07:48:13;;;;;;;1.20;1.08;;;;;;;;;;5008881;28;20582;-29
2022/07/03 07:50:41;;;;;;;1.02;1.00;;;;;;;;;;5003858;28;20219;-29
2022/07/03 07:53:08;;;;;;;3.00;0.90;;;;;;;;;;5013965;28;20223;-30
2022/07/03 07:55:35;;;;;;;2.05;1.00;;;;;;;;;;5014013;28;20199;-28
2022/07/03 07:58:02;;;;;;;0.70;0.70;;;;;;;;;;5006616;28;20712;-28
2022/07/03 08:00:29;;;;;;;3.05;1.00;;;;;;;;;;5005096;28;20207;-30
2022/07/03 08:05:43;;;;;;;0.90;0.90;;;;;;;;;;5002730;28;20206;-29
2022/07/03 08:08:11;;;;;;;1.13;1.02;;;;;;;;;;5013741;28;20238;-32
2022/07/03 08:10:39;;;;;;;0.98;0.98;;;;;;;;;;5014042;28;20211;-29
2022/07/03 08:13:18;;;;;;;1.52;0.73;;;;;;;;;;5006207;28;20234;-28
2022/07/03 08:15:46;;;;;;;0.93;0.93;;;;;;;;;;5013051;28;20206;-29
2022/07/03 08:18:14;;;;;;;0.85;0.85;;;;;;;;;;5011784;28;20261;-25
2022/07/03 08:20:43;;;;;;;0.80;0.80;;;;;;;;;;5005559;28;20204;-29
2022/07/03 08:23:10;;;;;;;2.13;0.85;;;;;;;;;;5012774;28;20307;-29
2022/07/03 08:25:37;;;;;;;0.70;0.70;;;;;;;;;;5013485;28;20222;-27
2022/07/03 08:28:04;;;;;;;0.65;0.65;;;;;;;;;;5000715;28;20242;-29
2022/07/03 08:30:31;;;;;;;0.80;0.80;;;;;;;;;;5001162;28;20229;-29
2022/07/03 08:32:59;;;;;;;0.57;0.57;;;;;;;;;;5002915;28;20227;-27
2022/07/03 08:35:26;;;;;;;1.55;0.88;;;;;;;;;;4999233;28;20211;-31
2022/07/03 08:37:55;;;;;;;0.75;0.68;;;;;;;;;;5012793;28;20234;-30
2022/07/03 08:40:23;;;;;;;0.77;0.77;;;;;;;;;;5014501;28;20214;-28
2022/07/03 08:42:51;;;;;;;0.60;0.60;;;;;;;;;;5004057;28;20222;-29
2022/07/03 08:45:18;;;;;;;1.05;0.60;;;;;;;;;;5012992;28;20257;-29
2022/07/03 08:47:46;;;;;;;0.65;0.65;;;;;;;;;;5011144;28;20231;-28
2022/07/03 08:50:14;;;;;;;1.27;0.60;;;;;;;;;;5002098;28;20226;-29
2022/07/03 08:52:42;;;;;;;0.63;0.60;;;;;;;;;;5012525;28;20234;-27
2022/07/03 08:55:11;;;;;;;0.50;0.50;;;;;;;;;;5013009;28;20211;-27
2022/07/03 08:57:40;;;;;;;2.38;1.27;;;;;;;;;;5006929;28;20235;-28
2022/07/03 09:00:08;;;;;;;0.52;0.52;;;;;;;;;;5012310;28;20207;-29
2022/07/03 09:02:36;;;;;;;0.65;0.65;;;;;;;;;;5012629;28;20207;-28
2022/07/03 09:05:03;;;;;;;2.05;0.60;;;;;;;;;;5351316;23;20241;-30
2022/07/03 09:07:33;;;;;;;0.82;0.68;;;;;;;;;;5053300;28;20229;-29
2022/07/03 09:10:00;;;;;;;0.55;0.55;;;;;;;;;;5053687;28;20206;-30
2022/07/03 09:12:31;;;;;;;3.00;0.70;;;;;;;;;;5046589;28;20218;-31
2022/07/03 09:14:58;;;;;;;0.60;0.60;;;;;;;;;;5042299;28;20209;-33
2022/07/03 09:17:25;;;;;;;0.60;0.60;;;;;;;;;;5052477;28;20222;-31
2022/07/03 09:19:52;;;;;;;0.98;0.63;;;;;;;;;;5043642;28;20201;-28
2022/07/03 09:22:24;;;;;;;1.48;0.60;;;;;;;;;;5044201;28;20209;-29
2022/07/03 09:24:52;;;;;;;0.60;0.60;;;;;;;;;;5050148;28;20293;-32
2022/07/03 09:27:19;;;;;;;0.50;0.50;;;;;;;;;;5050606;28;20225;-31
2022/07/03 09:30:00;;;;;;;0.50;0.50;;;;;;;;;;5044794;28;20205;-29
2022/07/03 09:32:27;;;;;;;0.50;0.50;;;;;;;;;;5044867;28;20225;-32
2022/07/03 09:35:19;;;;;;;0.50;0.50;;;;;;;;;;5043782;28;20213;-33
2022/07/03 09:37:49;;;;;;;4.78;0.60;;;;;;;;;;5030318;28;20295;-31
2022/07/03 09:40:17;;;;;;;0.63;0.47;;;;;;;;;;5049438;28;20223;-28
2022/07/03 09:42:57;;;;;;;0.50;0.50;;;;;;;;;;5039948;28;20579;-32
2022/07/03 09:45:26;;;;;;;0.52;0.52;;;;;;;;;;5049166;28;20201;-30
2022/07/03 09:47:53;;;;;;;0.63;0.63;;;;;;;;;;5046456;28;20228;-30
2022/07/03 09:50:20;;;;;;;0.63;0.55;;;;;;;;;;5044894;28;20202;-31
2022/07/03 09:52:49;;;;;;;2.72;0.70;;;;;;;;;;5049247;28;20216;-29
2022/07/03 09:55:17;;;;;;;0.52;0.52;;;;;;;;;;5049776;28;20200;-33
2022/07/03 09:57:45;;;;;;;1.42;0.40;;;;;;;;;;5043154;28;20570;-30
2022/07/03 10:00:14;;;;;;;0.55;0.55;;;;;;;;;;5047849;28;20213;-31
2022/07/03 10:02:58;;;;;;;0.65;0.60;;;;;;;;;;5048987;28;20197;-28
2022/07/03 10:05:26;;;;;;;0.47;0.45;;;;;;;;;;5046593;28;20219;-33
2022/07/03 10:07:55;;;;;;;0.60;0.60;;;;;;;;;;5049230;28;20227;-31
2022/07/03 10:10:24;;;;;;;0.52;0.52;;;;;;;;;;5049323;28;20205;-29
2022/07/03 10:12:51;;;;;;;0.60;0.60;;;;;;;;;;5041270;28;20235;-30
2022/07/03 10:15:19;;;;;;;0.60;0.60;;;;;;;;;;5049601;28;20213;-29
2022/07/03 10:17:49;;;;;;;0.52;0.50;;;;;;;;;;5048128;28;20228;-32
2022/07/03 10:22:49;;;;;;;2.83;0.60;;;;;;;;;;5030064;28;20299;-30
2022/07/03 10:25:17;;;;;;;0.52;0.40;;;;;;;;;;5032646;28;20209;-31
2022/07/03 10:27:47;;;;;;;0.52;0.52;;;;;;;;;;5021500;28;20237;-29
2022/07/03 10:30:15;;;;;;;0.40;0.40;;;;;;;;;;5020613;28;20215;-32
2022/07/03 10:32:43;;;;;;;1.02;0.40;;;;;;;;;;5019613;28;20250;-31
2022/07/03 10:35:11;;;;;;;0.50;0.50;;;;;;;;;;5017120;28;20203;-30
2022/07/03 10:37:42;;;;;;;0.63;0.50;;;;;;;;;;5008890;28;20230;-33
2022/07/03 10:46:04;;;;;;;0.98;0.80;;;;;;;;;;5009389;28;20330;-31
2022/07/03 10:48:51;;;;;;;3.10;0.77;;;;;;;;;;5002334;28;20292;-31
2022/07/03 10:51:18;;;;;;;0.77;0.60;;;;;;;;;;5000047;28;20217;-28
2022/07/03 10:53:46;;;;;;;0.50;0.50;;;;;;;;;;5012234;28;20229;-29
2022/07/03 10:56:14;;;;;;;0.50;0.50;;;;;;;;;;5013072;28;20232;-30
2022/07/03 10:58:56;;;;;;;0.80;0.55;;;;;;;;;;5009100;28;20296;-29
2022/07/03 11:01:27;;;;;;;2.38;0.50;;;;;;;;;;5017648;28;20200;-29
2022/07/03 11:03:55;;;;;;;0.65;0.50;;;;;;;;;;5001992;28;20210;-27
2022/07/03 11:06:22;;;;;;;0.40;0.40;;;;;;;;;;5006956;28;20256;-31
2022/07/03 11:09:05;;;;;;;0.50;0.50;;;;;;;;;;5012421;28;20205;-32
2022/07/03 11:11:57;;;;;;;0.50;0.50;;;;;;;;;;5011536;28;20210;-33
2022/07/03 11:14:25;;;;;;;1.05;0.60;;;;;;;;;;4999074;28;20241;-28
2022/07/03 11:17:17;;;;;;;0.93;0.50;;;;;;;;;;5011901;28;20235;-32
2022/07/03 11:20:23;;;;;;;0.70;0.70;;;;;;;;;;5005789;28;20216;-29
2022/07/03 11:22:33;;;;;;;1.02;0.60;;;;;;;;;;5007743;28;20216;-34
2022/07/03 11:25:00;;;;;;;0.47;0.47;;;;;;;;;;5012161;28;20211;-33
2022/07/03 11:27:29;;;;;;;0.50;0.50;;;;;;;;;;4997634;28;20244;-32
2022/07/03 11:30:00;;;;;;;1.60;0.80;;;;;;;;;;5004510;28;20203;-32
2022/07/03 11:32:46;;;;;;;0.70;0.70;;;;;;;;;;5012608;28;20202;-34
2022/07/03 11:35:32;;;;;;;0.55;0.55;;;;;;;;;;4996270;28;20209;-31
2022/07/03 11:37:59;;;;;;;0.50;0.50;;;;;;;;;;5011386;28;20241;-31
2022/07/03 11:40:30;;;;;;;1.45;0.73;;;;;;;;;;5011974;28;20203;-32
2022/07/03 11:43:01;;;;;;;2.88;0.50;;;;;;;;;;5005605;28;20222;-33
2022/07/03 11:45:29;;;;;;;0.55;0.55;;;;;;;;;;5011783;28;20287;-32
2022/07/03 11:47:57;;;;;;;0.77;0.50;;;;;;;;;;5010152;28;20226;-31
2022/07/03 11:50:37;;;;;;;0.60;0.60;;;;;;;;;;4998945;28;20207;-32
2022/07/03 11:53:16;;;;;;;0.52;0.52;;;;;;;;;;5007360;28;20232;-32
2022/07/03 11:55:47;;;;;;;0.88;0.70;;;;;;;;;;5013975;28;20233;-34
2022/07/03 11:58:16;;;;;;;0.75;0.75;;;;;;;;;;5005217;28;20213;-35
2022/07/03 12:00:43;;;;;;;0.50;0.50;;;;;;;;;;5011715;28;20218;-35
2022/07/03 12:03:11;;;;;;;0.57;0.57;;;;;;;;;;5008986;28;20665;-31
2022/07/03 12:05:38;;;;;;;0.60;0.60;;;;;;;;;;5001227;28;20221;-33
2022/07/03 12:08:06;;;;;;;0.65;0.50;;;;;;;;;;5010999;28;20228;-32
2022/07/03 12:10:40;;;;;;;1.27;0.55;;;;;;;;;;5011989;28;20208;-31
2022/07/03 12:13:21;;;;;;;0.50;0.50;;;;;;;;;;5010778;28;20238;-33
2022/07/03 12:15:48;;;;;;;0.60;0.60;;;;;;;;;;5010379;28;20215;-31
2022/07/03 12:18:15;;;;;;;0.60;0.60;;;;;;;;;;5006738;28;20205;-33
2022/07/03 12:20:42;;;;;;;1.40;0.75;;;;;;;;;;5000530;28;20230;-34
2022/07/03 12:23:09;;;;;;;0.73;0.70;;;;;;;;;;5010786;28;20197;-32
2022/07/03 12:25:40;;;;;;;0.60;0.60;;;;;;;;;;5008584;28;20297;-32
2022/07/03 12:28:07;;;;;;;0.73;0.57;;;;;;;;;;5001263;28;20237;-31
2022/07/03 12:30:35;;;;;;;1.25;1.15;;;;;;;;;;5000916;28;20209;-32
2022/07/03 12:33:03;;;;;;;0.73;0.65;;;;;;;;;;5008282;28;20243;-30
2022/07/03 12:35:30;;;;;;;0.90;0.57;;;;;;;;;;5002367;28;20213;-31
2022/07/03 12:37:58;;;;;;;0.85;0.70;;;;;;;;;;5014189;28;20233;-32
2022/07/03 12:40:25;;;;;;;0.60;0.60;;;;;;;;;;5014634;28;20204;-32
2022/07/03 12:42:53;;;;;;;1.33;0.52;;;;;;;;;;5009077;28;20217;-32
2022/07/03 12:45:21;;;;;;;0.70;0.70;;;;;;;;;;5008610;28;20207;-31
2022/07/03 12:47:58;;;;;;;1.48;0.50;;;;;;;;;;5013174;28;20320;-30
2022/07/03 12:50:25;;;;;;;1.15;0.45;;;;;;;;;;5013030;28;20213;-30
2022/07/03 12:52:54;;;;;;;1.27;0.52;;;;;;;;;;5014141;28;20199;-33
2022/07/03 12:55:24;;;;;;;0.60;0.60;;;;;;;;;;5014409;28;20210;-32
2022/07/03 13:00:45;;;;;;;0.60;0.60;;;;;;;;;;5002892;28;20275;-32
2022/07/03 13:03:27;;;;;;;1.23;0.60;;;;;;;;;;5013926;28;20201;-30
2022/07/03 13:05:55;;;;;;;0.95;0.60;;;;;;;;;;5011926;28;20210;-32
2022/07/03 13:08:22;;;;;;;0.75;0.60;;;;;;;;;;5013712;28;20663;-32
2022/07/03 13:10:56;;;;;;;0.47;0.47;;;;;;;;;;5014212;28;20211;-32
2022/07/03 13:13:23;;;;;;;0.50;0.50;;;;;;;;;;5010117;28;20231;-32
2022/07/03 13:15:51;;;;;;;0.82;0.65;;;;;;;;;;5013155;28;20206;-29
2022/07/03 13:18:18;;;;;;;1.15;0.65;;;;;;;;;;5011376;28;20229;-29
2022/07/03 13:20:45;;;;;;;0.60;0.60;;;;;;;;;;5006087;28;20216;-32
2022/07/03 13:23:13;;;;;;;1.75;0.70;;;;;;;;;;5012570;28;20205;-32
2022/07/03 13:25:42;;;;;;;0.60;0.60;;;;;;;;;;5012818;28;20289;-30
2022/07/03 13:28:11;;;;;;;0.60;0.60;;;;;;;;;;5006628;28;20207;-33
2022/07/03 13:30:38;;;;;;;0.77;0.57;;;;;;;;;;5005079;28;20238;-30
2022/07/03 13:33:05;;;;;;;0.55;0.55;;;;;;;;;;5010148;28;20203;-31
2022/07/03 13:35:33;;;;;;;0.52;0.50;;;;;;;;;;5002308;28;20210;-29
2022/07/03 13:38:01;;;;;;;0.57;0.57;;;;;;;;;;5012039;28;20237;-31
2022/07/03 13:40:29;;;;;;;1.85;0.60;;;;;;;;;;5013313;28;20261;-33
2022/07/03 13:42:57;;;;;;;1.83;0.55;;;;;;;;;;5010035;28;20211;-32
2022/07/03 13:45:24;;;;;;;1.30;0.70;;;;;;;;;;5007490;28;20215;-30
2022/07/03 13:47:51;;;;;;;0.50;0.45;;;;;;;;;;5010252;28;20234;-29
2022/07/03 13:50:18;;;;;;;0.50;0.50;;;;;;;;;;5002465;28;20211;-30
2022/07/03 13:52:45;;;;;;;0.50;0.50;;;;;;;;;;5012343;28;20214;-30
2022/07/03 13:55:13;;;;;;;0.47;0.47;;;;;;;;;;5012226;28;20328;-29
2022/07/03 13:57:41;;;;;;;3.13;0.73;;;;;;;;;;5013134;28;20695;-30
2022/07/03 14:00:09;;;;;;;1.52;0.80;;;;;;;;;;5005286;28;20221;-29
2022/07/03 14:02:37;;;;;;;3.15;0.77;;;;;;;;;;5012551;28;20211;-31
2022/07/03 14:05:04;;;;;;;0.75;0.73;;;;;;;;;;5008182;28;20293;-28
2022/07/03 14:07:40;;;;;;;2.75;0.80;;;;;;;;;;5010448;28;20233;-31
2022/07/03 14:10:10;;;;;;;0.75;0.70;;;;;;;;;;5007079;28;20697;-34
2022/07/03 14:12:38;;;;;;;1.55;0.60;;;;;;;;;;5007419;28;20302;-30
2022/07/03 14:15:07;;;;;;;1.00;0.80;;;;;;;;;;5015574;28;20223;-32
2022/07/03 14:17:34;;;;;;;0.68;0.57;;;;;;;;;;5016218;28;20242;-29
2022/07/03 14:20:02;;;;;;;1.13;0.70;;;;;;;;;;5005758;28;20207;-33
2022/07/03 14:22:29;;;;;;;1.85;0.80;;;;;;;;;;5015002;28;20215;-33
2022/07/03 14:24:56;;;;;;;2.05;0.68;;;;;;;;;;5015998;28;20830;-32
2022/07/03 14:32:55;;;;;;;1.52;0.90;;;;;;;;;;5010360;28;20305;-32
2022/07/03 14:35:23;;;;;;;0.75;0.70;;;;;;;;;;4995827;28;20231;-35
2022/07/03 14:37:50;;;;;;;1.70;0.70;;;;;;;;;;5013047;28;20227;-32
2022/07/03 14:40:17;;;;;;;2.80;0.80;;;;;;;;;;5009010;28;20207;-34
2022/07/03 14:42:44;;;;;;;0.93;0.70;;;;;;;;;;5017815;28;20217;-32
2022/07/03 14:45:13;;;;;;;0.80;0.80;;;;;;;;;;5011822;28;20209;-31
2022/07/03 14:47:40;;;;;;;0.85;0.70;;;;;;;;;;5016216;28;20219;-33
2022/07/03 14:50:08;;;;;;;1.13;0.55;;;;;;;;;;5006564;28;20209;-33
2022/07/03 14:52:35;;;;;;;0.82;0.68;;;;;;;;;;5014787;28;20261;-29
2022/07/03 14:55:02;;;;;;;1.05;0.68;;;;;;;;;;5012130;28;20227;-31
2022/07/03 14:57:34;;;;;;;0.60;0.60;;;;;;;;;;5014951;28;20231;-33
2022/07/03 15:00:04;;;;;;;0.70;0.70;;;;;;;;;;5011050;28;20210;-33
2022/07/03 15:02:35;;;;;;;1.02;0.95;;;;;;;;;;5010262;28;20680;-32
2022/07/03 15:05:07;;;;;;;0.55;0.55;;;;;;;;;;5004821;28;20213;-31
2022/07/03 15:07:35;;;;;;;1.85;0.73;;;;;;;;;;5014120;28;20223;-34
2022/07/03 15:10:05;;;;;;;0.55;0.55;;;;;;;;;;5013307;28;20217;-29
2022/07/03 15:12:34;;;;;;;1.42;0.60;;;;;;;;;;5008905;28;20207;-32
2022/07/03 15:15:01;;;;;;;1.23;0.70;;;;;;;;;;5011384;28;20227;-31